Time;durP1;ratioP1;P1;durP2;ratioP2;P2;SDS_P1;SDS_P2;PMS_P1;PMS_P2;Temp;Humidity;BMP_temperature;BMP_pressure;BME280_temperature;BME280_humidity;BME280_pressure;Samples;Min_cycle;Max_cycle;Signal;HPM_P1;HPM_P2
2023/05/09 00:00:31;;;;;;;17.97;13.73;;;17.20;99.90;;;;;;5080593;27;20919;-62
2023/05/09 00:02:58;;;;;;;21.70;14.10;;;17.20;99.90;;;;;;5088670;27;20707;-62
2023/05/09 00:05:25;;;;;;;17.97;12.97;;;17.20;99.90;;;;;;5078759;27;20480;-63
2023/05/09 00:07:52;;;;;;;20.20;14.27;;;17.20;99.90;;;;;;5080241;27;20737;-62
2023/05/09 00:10:19;;;;;;;15.77;12.83;;;17.20;99.90;;;;;;5092242;27;20486;-62
2023/05/09 00:12:48;;;;;;;16.93;12.77;;;17.30;99.90;;;;;;5071028;28;20513;-62
2023/05/09 00:15:15;;;;;;;20.03;13.03;;;17.30;99.90;;;;;;5058092;28;20573;-63
2023/05/09 00:17:43;;;;;;;18.27;13.33;;;17.20;99.90;;;;;;5070906;28;20470;-63
2023/05/09 00:20:11;;;;;;;17.20;12.70;;;17.20;99.90;;;;;;5061103;28;20489;-62
2023/05/09 00:22:39;;;;;;;23.53;14.23;;;17.10;99.90;;;;;;5073114;28;20486;-62
2023/05/09 00:25:07;;;;;;;15.83;12.73;;;17.10;99.90;;;;;;5079097;28;20469;-62
2023/05/09 00:27:34;;;;;;;15.73;12.97;;;17.20;99.90;;;;;;5067911;28;20479;-62
2023/05/09 00:30:04;;;;;;;20.40;14.00;;;17.20;99.90;;;;;;5082845;27;20472;-62
2023/05/09 00:32:32;;;;;;;17.13;12.97;;;17.20;99.90;;;;;;5088918;27;20488;-62
2023/05/09 00:34:59;;;;;;;17.20;12.90;;;17.10;99.90;;;;;;5086474;27;20485;-62
2023/05/09 00:37:26;;;;;;;20.20;12.90;;;17.10;99.90;;;;;;5103746;27;20475;-63
2023/05/09 00:39:53;;;;;;;23.80;13.47;;;17.20;99.90;;;;;;5066187;28;21217;-63
2023/05/09 00:42:19;;;;;;;18.73;13.90;;;17.20;99.90;;;;;;5074336;27;20873;-63
2023/05/09 00:44:46;;;;;;;18.90;14.17;;;16.80;99.90;;;;;;5073957;27;21024;-63
2023/05/09 00:47:14;;;;;;;17.17;13.77;;;17.30;99.90;;;;;;5094693;27;20635;-63
2023/05/09 00:49:41;;;;;;;20.93;13.87;;;17.40;99.90;;;;;;5071986;28;20486;-63
2023/05/09 00:52:08;;;;;;;18.90;14.03;;;17.30;99.90;;;;;;5068465;27;20477;-63
2023/05/09 00:54:35;;;;;;;27.50;14.40;;;17.10;99.90;;;;;;5095386;27;20862;-62
2023/05/09 00:57:02;;;;;;;28.03;15.90;;;16.90;99.90;;;;;;5074872;28;20471;-62
2023/05/09 00:59:29;;;;;;;28.90;14.80;;;16.90;99.90;;;;;;5067397;27;20467;-63
2023/05/09 01:01:56;;;;;;;38.50;15.80;;;16.80;99.90;;;;;;5096373;27;20492;-62
2023/05/09 01:04:24;;;;;;;49.57;17.60;;;16.70;99.90;;;;;;5077884;28;20571;-62
2023/05/09 01:07:00;;;;;;;77.23;19.17;;;16.50;99.90;;;;;;5098376;27;20471;-63
2023/05/09 01:09:35;;;;;;;39.70;18.23;;;16.50;99.90;;;;;;5066391;28;20482;-62
2023/05/09 01:12:12;;;;;;;76.37;21.27;;;16.50;99.90;;;;;;5073807;28;20492;-62
2023/05/09 01:14:46;;;;;;;83.63;21.97;;;16.40;99.90;;;;;;5058206;28;20465;-62
2023/05/09 01:17:21;;;;;;;106.30;22.33;;;16.40;99.90;;;;;;5064527;27;20471;-62
2023/05/09 01:20:12;;;;;;;137.67;22.97;;;16.30;99.90;;;;;;5079979;27;20481;-62
2023/05/09 01:22:43;;;;;;;117.23;21.07;;;16.30;99.90;;;;;;5076915;28;20462;-62
2023/05/09 01:25:37;;;;;;;184.87;25.43;;;16.30;99.90;;;;;;5082289;27;20514;-62
2023/05/09 01:28:14;;;;;;;175.40;29.57;;;16.20;99.90;;;;;;5069060;27;20472;-62
2023/05/09 01:30:45;;;;;;;120.50;27.77;;;16.20;99.90;;;;;;5089048;27;20482;-63
2023/05/09 01:33:16;;;;;;;120.43;25.77;;;16.10;99.90;;;;;;5079195;27;21039;-63
2023/05/09 01:35:47;;;;;;;94.33;25.93;;;16.10;99.90;;;;;;5084707;27;20587;-63
2023/05/09 01:38:18;;;;;;;90.60;27.47;;;16.20;99.90;;;;;;5067201;28;20894;-63
2023/05/09 01:40:48;;;;;;;66.30;23.67;;;16.20;99.90;;;;;;5069663;28;20474;-62
2023/05/09 01:43:19;;;;;;;79.93;26.03;;;16.20;99.90;;;;;;5084752;27;20484;-63
2023/05/09 01:45:48;;;;;;;58.53;25.00;;;16.20;99.90;;;;;;5079674;27;20480;-62
2023/05/09 01:48:16;;;;;;;49.53;23.40;;;16.20;99.90;;;;;;5086105;27;20476;-62
2023/05/09 01:50:44;;;;;;;66.20;24.73;;;16.30;99.90;;;;;;5085521;27;20487;-63
2023/05/09 01:53:12;;;;;;;48.60;23.50;;;16.40;99.90;;;;;;5082644;27;20547;-63
2023/05/09 01:55:40;;;;;;;51.87;21.63;;;16.50;99.90;;;;;;5089824;27;20553;-62
2023/05/09 01:58:09;;;;;;;40.60;22.57;;;16.50;99.90;;;;;;5082431;27;20712;-62
2023/05/09 02:00:37;;;;;;;50.03;22.27;;;16.40;99.90;;;;;;5089978;27;20555;-62
2023/05/09 02:03:06;;;;;;;59.73;24.30;;;16.40;99.90;;;;;;4950373;27;20931;-63
2023/05/09 02:05:34;;;;;;;46.00;21.27;;;16.40;99.90;;;;;;5098092;27;20842;-62
2023/05/09 02:08:01;;;;;;;47.40;22.03;;;16.50;99.90;;;;;;5073347;28;20471;-62
2023/05/09 02:10:31;;;;;;;45.13;21.37;;;16.50;99.90;;;;;;5087237;27;20481;-63
2023/05/09 02:12:58;;;;;;;36.20;20.30;;;17.10;99.90;;;;;;5082681;27;20476;-62
2023/05/09 02:15:25;;;;;;;33.40;20.80;;;16.50;99.90;;;;;;5088520;27;20693;-63
2023/05/09 02:17:51;;;;;;;38.30;22.03;;;16.50;99.90;;;;;;5073219;28;20478;-63
2023/05/09 02:20:20;;;;;;;33.17;19.93;;;16.50;99.90;;;;;;5078165;27;21210;-62
2023/05/09 02:22:47;;;;;;;33.47;21.00;;;16.60;99.90;;;;;;5064981;28;20482;-62
2023/05/09 02:25:15;;;;;;;30.90;19.20;;;16.60;99.90;;;;;;5073461;28;20478;-62
2023/05/09 02:27:45;;;;;;;28.03;18.50;;;16.70;99.90;;;;;;5073821;28;20502;-62
2023/05/09 02:30:17;;;;;;;31.13;19.83;;;16.80;99.90;;;;;;5073223;28;20495;-62
2023/05/09 02:32:47;;;;;;;27.83;17.23;;;16.90;99.90;;;;;;5078786;27;20488;-62
2023/05/09 02:35:16;;;;;;;26.33;17.90;;;16.80;99.90;;;;;;5080173;27;20492;-62
2023/05/09 02:37:44;;;;;;;28.20;17.03;;;16.80;99.90;;;;;;5099130;27;20481;-62
2023/05/09 02:40:12;;;;;;;27.57;18.27;;;16.80;99.90;;;;;;5084753;27;20470;-62
2023/05/09 02:42:38;;;;;;;36.83;19.90;;;16.80;99.90;;;;;;5076333;28;20970;-63
2023/05/09 02:45:08;;;;;;;27.03;16.97;;;16.70;99.90;;;;;;5092539;27;20485;-63
2023/05/09 02:47:35;;;;;;;29.33;18.97;;;16.70;99.90;;;;;;5063058;28;20483;-63
2023/05/09 02:50:02;;;;;;;28.80;17.30;;;16.60;99.90;;;;;;5075370;27;20484;-63
2023/05/09 02:52:29;;;;;;;28.50;17.37;;;16.50;99.90;;;;;;5072629;27;20510;-62
2023/05/09 02:54:58;;;;;;;29.77;18.57;;;16.60;99.90;;;;;;5092783;27;20490;-63
2023/05/09 02:57:25;;;;;;;31.27;18.03;;;16.70;99.90;;;;;;5092172;27;20477;-62
2023/05/09 02:59:52;;;;;;;26.00;17.70;;;16.80;99.90;;;;;;5076284;28;20495;-63
2023/05/09 03:02:18;;;;;;;29.10;17.70;;;16.80;99.90;;;;;;5081887;27;20483;-63
2023/05/09 03:04:45;;;;;;;31.27;17.87;;;16.70;99.90;;;;;;5080662;28;20480;-63
2023/05/09 03:07:12;;;;;;;44.33;17.90;;;16.60;99.90;;;;;;5058312;28;20469;-63
2023/05/09 03:09:39;;;;;;;24.70;16.17;;;16.50;99.90;;;;;;5072896;28;20913;-62
2023/05/09 03:12:07;;;;;;;28.00;17.20;;;16.40;99.90;;;;;;5079688;27;20483;-62
2023/05/09 03:14:35;;;;;;;30.57;18.40;;;16.30;99.90;;;;;;5094323;27;20478;-62
2023/05/09 03:17:02;;;;;;;30.17;17.13;;;16.20;99.90;;;;;;5069936;27;20487;-63
2023/05/09 03:19:29;;;;;;;41.37;21.27;;;16.10;99.90;;;;;;5097767;28;21083;-62
2023/05/09 03:21:55;;;;;;;33.13;20.00;;;16.10;99.90;;;;;;5086159;27;20482;-62
2023/05/09 03:24:23;;;;;;;32.90;18.37;;;16.10;99.90;;;;;;5067523;28;20478;-63
2023/05/09 03:26:50;;;;;;;38.03;18.97;;;16.10;99.90;;;;;;5074386;27;20545;-63
2023/05/09 03:29:18;;;;;;;34.60;18.80;;;16.10;99.90;;;;;;5086787;28;20601;-62
2023/05/09 03:31:45;;;;;;;28.53;18.30;;;16.10;99.90;;;;;;5071181;28;20487;-62
2023/05/09 03:34:13;;;;;;;28.70;17.93;;;16.10;99.90;;;;;;5070852;28;20878;-62
2023/05/09 03:36:41;;;;;;;24.57;16.40;;;16.10;99.90;;;;;;5084775;27;20524;-62
2023/05/09 03:39:08;;;;;;;25.97;18.43;;;16.10;99.90;;;;;;5077084;28;20470;-62
2023/05/09 03:41:35;;;;;;;26.60;16.80;;;16.30;99.90;;;;;;5089183;27;20497;-61
2023/05/09 03:44:02;;;;;;;26.07;17.40;;;16.40;99.90;;;;;;5089438;27;20505;-63
2023/05/09 03:46:31;;;;;;;29.43;19.00;;;16.40;99.90;;;;;;5098691;27;20749;-63
2023/05/09 03:48:57;;;;;;;25.90;17.77;;;16.40;99.90;;;;;;5101708;27;20505;-63
2023/05/09 03:51:25;;;;;;;39.13;18.00;;;16.30;99.90;;;;;;5076343;28;20478;-62
2023/05/09 03:53:52;;;;;;;88.77;20.90;;;16.20;99.90;;;;;;5083604;28;20465;-62
2023/05/09 03:56:19;;;;;;;119.10;23.50;;;16.10;99.90;;;;;;5096997;27;20472;-62
2023/05/09 03:58:46;;;;;;;185.37;27.73;;;16.10;99.90;;;;;;5091080;27;20472;-63
2023/05/09 04:01:13;;;;;;;289.23;30.63;;;16.00;99.90;;;;;;5076419;27;20488;-63
2023/05/09 04:03:41;;;;;;;180.17;29.37;;;16.00;99.90;;;;;;5086531;27;20523;-62
2023/05/09 04:06:08;;;;;;;151.57;26.00;;;15.90;99.90;;;;;;5069959;28;20473;-63
2023/05/09 04:08:35;;;;;;;143.03;25.20;;;15.90;99.90;;;;;;5097208;28;20477;-63
2023/05/09 04:11:02;;;;;;;72.23;24.60;;;15.90;99.90;;;;;;5074859;28;21199;-63
2023/05/09 04:13:30;;;;;;;55.87;22.53;;;16.00;99.90;;;;;;5089055;28;20490;-62
2023/05/09 04:15:57;;;;;;;49.47;24.57;;;16.10;99.90;;;;;;5087755;27;20556;-62
2023/05/09 04:18:24;;;;;;;47.17;23.80;;;16.30;99.90;;;;;;5077135;28;20497;-63
2023/05/09 04:20:52;;;;;;;51.37;23.77;;;16.40;99.90;;;;;;5082686;27;20482;-62
2023/05/09 04:23:19;;;;;;;55.57;24.20;;;16.50;99.90;;;;;;5079890;28;20479;-62
2023/05/09 04:25:55;;;;;;;49.97;24.77;;;16.60;99.90;;;;;;5082588;28;20478;-62
2023/05/09 04:28:22;;;;;;;58.53;23.10;;;16.60;99.90;;;;;;5079808;28;20504;-62
2023/05/09 04:30:49;;;;;;;50.77;22.23;;;16.60;99.90;;;;;;5085627;27;20473;-62
2023/05/09 04:33:16;;;;;;;55.97;26.17;;;16.50;99.90;;;;;;5089584;27;20582;-61
2023/05/09 04:35:43;;;;;;;48.90;24.03;;;16.30;99.90;;;;;;5089763;28;20478;-62
2023/05/09 04:38:11;;;;;;;47.57;22.87;;;16.40;99.90;;;;;;5092194;28;20492;-61
2023/05/09 04:40:38;;;;;;;47.33;22.33;;;16.40;99.90;;;;;;5084959;28;20470;-61
2023/05/09 04:43:06;;;;;;;49.33;24.30;;;16.50;99.90;;;;;;5085408;28;20486;-62
2023/05/09 04:45:32;;;;;;;54.07;26.10;;;16.50;99.90;;;;;;5089601;27;20857;-62
2023/05/09 04:47:59;;;;;;;45.43;23.30;;;16.60;99.90;;;;;;5079659;28;20490;-61
2023/05/09 04:50:26;;;;;;;46.50;22.87;;;16.60;99.90;;;;;;5092660;28;20958;-62
2023/05/09 04:52:53;;;;;;;46.47;22.93;;;16.70;99.90;;;;;;5083330;28;20497;-62
2023/05/09 04:55:21;;;;;;;55.23;23.77;;;16.70;99.90;;;;;;5091072;28;20831;-62
2023/05/09 04:57:48;;;;;;;45.90;23.03;;;16.60;99.90;;;;;;5089790;28;20699;-62
2023/05/09 05:00:16;;;;;;;56.67;25.00;;;16.50;99.90;;;;;;5080573;28;20482;-62
2023/05/09 05:02:43;;;;;;;47.63;23.87;;;16.50;99.90;;;;;;5086232;27;20560;-62
2023/05/09 05:05:10;;;;;;;45.73;23.10;;;16.50;99.90;;;;;;5101570;27;20498;-62
2023/05/09 05:07:37;;;;;;;45.23;23.10;;;16.50;99.90;;;;;;5080116;28;20477;-62
2023/05/09 05:10:05;;;;;;;46.97;25.03;;;16.50;99.90;;;;;;5082048;28;20474;-62
2023/05/09 05:12:33;;;;;;;43.70;22.00;;;16.50;99.90;;;;;;5088864;27;20477;-62
2023/05/09 05:15:00;;;;;;;46.93;24.50;;;16.50;99.90;;;;;;5062507;28;20472;-62
2023/05/09 05:17:28;;;;;;;38.83;23.67;;;16.50;99.90;;;;;;5083473;28;20478;-62
2023/05/09 05:19:55;;;;;;;47.63;24.30;;;16.60;99.90;;;;;;5095436;28;20474;-62
2023/05/09 05:22:21;;;;;;;44.43;24.17;;;16.60;99.90;;;;;;5085134;27;20554;-62
2023/05/09 05:24:48;;;;;;;40.30;23.60;;;16.60;99.90;;;;;;5092154;28;20484;-62
2023/05/09 05:27:15;;;;;;;39.63;23.00;;;16.70;99.90;;;;;;5082604;27;22925;-62
2023/05/09 05:29:44;;;;;;;46.87;26.17;;;16.60;99.90;;;;;;5069169;28;20483;-62
2023/05/09 05:32:11;;;;;;;42.30;25.17;;;16.60;99.90;;;;;;5104398;27;20826;-63
2023/05/09 05:34:38;;;;;;;42.27;23.80;;;16.60;99.90;;;;;;5098589;28;20485;-61
2023/05/09 05:37:05;;;;;;;42.10;23.47;;;16.70;99.90;;;;;;5097630;27;20562;-62
2023/05/09 05:39:32;;;;;;;40.30;23.80;;;16.90;99.90;;;;;;5074013;28;20481;-62
2023/05/09 05:41:59;;;;;;;34.00;22.23;;;17.00;99.90;;;;;;5097793;28;20496;-61
2023/05/09 05:44:26;;;;;;;34.27;22.00;;;17.10;99.90;;;;;;5101408;27;20477;-62
2023/05/09 05:46:54;;;;;;;39.27;24.63;;;17.10;99.90;;;;;;5084776;28;20536;-62
2023/05/09 05:49:21;;;;;;;35.00;22.07;;;17.20;99.90;;;;;;5080856;27;20482;-62
2023/05/09 05:51:48;;;;;;;31.50;20.23;;;17.00;99.90;;;;;;5093896;28;20475;-62
2023/05/09 05:54:14;;;;;;;36.03;22.70;;;17.30;99.90;;;;;;5079105;28;20490;-62
2023/05/09 05:56:41;;;;;;;33.13;21.30;;;17.40;99.90;;;;;;5077923;28;20779;-63
2023/05/09 05:59:08;;;;;;;29.93;20.63;;;17.50;99.90;;;;;;5078725;28;20475;-63
2023/05/09 06:01:35;;;;;;;27.67;19.53;;;17.60;99.90;;;;;;5079599;28;20475;-62
2023/05/09 06:04:03;;;;;;;30.70;21.80;;;17.60;99.90;;;;;;5095567;28;20492;-62
2023/05/09 06:06:31;;;;;;;28.87;20.20;;;17.70;99.90;;;;;;5082887;28;20484;-63
2023/05/09 06:08:57;;;;;;;30.80;20.13;;;17.70;99.90;;;;;;5098839;28;20550;-63
2023/05/09 06:11:25;;;;;;;31.40;19.77;;;17.70;99.90;;;;;;5098041;27;20486;-63
2023/05/09 06:13:51;;;;;;;24.90;20.23;;;17.80;99.90;;;;;;5084411;27;20486;-62
2023/05/09 06:16:19;;;;;;;28.40;19.97;;;17.90;99.90;;;;;;5093668;28;20477;-63
2023/05/09 06:18:46;;;;;;;28.20;19.13;;;18.00;99.90;;;;;;5089207;27;20994;-63
2023/05/09 06:21:14;;;;;;;19.10;15.93;;;18.00;99.90;;;;;;5083503;28;20479;-63
2023/05/09 06:23:41;;;;;;;21.60;18.30;;;18.10;99.90;;;;;;5061438;28;20482;-63
2023/05/09 06:26:08;;;;;;;26.03;17.77;;;18.10;99.90;;;;;;5077985;28;20462;-63
2023/05/09 06:28:36;;;;;;;19.87;16.77;;;18.10;99.90;;;;;;5095673;28;20683;-63
2023/05/09 06:31:02;;;;;;;23.43;17.30;;;18.20;99.90;;;;;;5084282;27;20745;-63
2023/05/09 06:33:29;;;;;;;19.73;16.83;;;18.40;99.90;;;;;;5086764;28;20478;-63
2023/05/09 06:35:56;;;;;;;19.13;15.70;;;18.50;99.90;;;;;;5076504;28;20493;-63
2023/05/09 06:38:24;;;;;;;26.07;17.53;;;18.70;99.90;;;;;;5094393;27;20488;-63
2023/05/09 06:40:51;;;;;;;21.47;15.10;;;18.60;99.90;;;;;;5077483;28;20483;-63
2023/05/09 06:43:18;;;;;;;19.40;15.43;;;19.00;99.90;;;;;;5082463;28;21165;-62
2023/05/09 06:45:45;;;;;;;17.80;14.20;;;19.30;99.90;;;;;;5095881;28;20477;-62
2023/05/09 06:48:12;;;;;;;17.17;15.43;;;19.50;99.90;;;;;;5080763;28;21265;-62
2023/05/09 06:50:39;;;;;;;10.60;9.53;;;19.50;99.90;;;;;;5076438;28;20494;-62
2023/05/09 06:53:06;;;;;;;13.77;12.13;;;19.50;99.90;;;;;;5074311;28;20490;-62
2023/05/09 06:55:34;;;;;;;11.20;10.10;;;19.60;99.90;;;;;;5084575;28;20789;-62
2023/05/09 06:58:01;;;;;;;12.63;11.30;;;19.60;99.90;;;;;;5076252;28;20487;-62
2023/05/09 07:00:28;;;;;;;15.07;12.83;;;19.60;99.90;;;;;;5074372;28;20482;-62
2023/05/09 07:02:54;;;;;;;17.57;14.47;;;19.30;99.90;;;;;;5096036;28;20500;-62
2023/05/09 07:05:21;;;;;;;13.97;12.07;;;19.30;99.90;;;;;;5089277;27;20473;-63
2023/05/09 07:07:48;;;;;;;12.47;11.27;;;19.30;99.90;;;;;;5113610;27;20504;-62
2023/05/09 07:10:15;;;;;;;12.80;11.17;;;19.30;99.90;;;;;;5099981;28;20489;-63
2023/05/09 07:12:44;;;;;;;14.80;11.90;;;19.30;99.90;;;;;;5095363;28;20485;-62
2023/05/09 07:15:11;;;;;;;14.53;12.97;;;19.20;99.90;;;;;;5083596;28;20476;-63
2023/05/09 07:17:38;;;;;;;15.07;11.97;;;18.70;99.90;;;;;;5076539;28;20479;-63
2023/05/09 07:20:06;;;;;;;14.70;13.13;;;18.70;99.90;;;;;;5099087;28;20485;-63
2023/05/09 07:22:33;;;;;;;18.20;13.13;;;18.70;99.90;;;;;;5078178;28;20474;-62
2023/05/09 07:24:59;;;;;;;14.60;13.20;;;18.70;99.90;;;;;;5076262;28;20698;-62
2023/05/09 07:27:26;;;;;;;14.20;12.80;;;18.90;99.90;;;;;;5081120;28;20476;-63
2023/05/09 07:29:55;;;;;;;14.10;12.47;;;19.00;99.90;;;;;;5091884;28;20488;-63
2023/05/09 07:32:21;;;;;;;13.37;12.07;;;19.00;99.90;;;;;;5077501;28;20475;-63
2023/05/09 07:34:48;;;;;;;15.27;13.67;;;18.90;99.90;;;;;;5095433;28;20448;-63
2023/05/09 07:37:15;;;;;;;16.73;12.60;;;19.00;99.90;;;;;;5095782;28;20980;-63
2023/05/09 07:39:42;;;;;;;14.03;12.20;;;19.00;99.90;;;;;;5087279;28;21010;-63
2023/05/09 07:42:09;;;;;;;14.10;12.77;;;19.10;99.90;;;;;;5076170;28;20815;-63
2023/05/09 07:44:36;;;;;;;13.63;12.23;;;19.30;99.90;;;;;;5095649;28;20473;-64
2023/05/09 07:47:05;;;;;;;15.17;13.63;;;19.10;99.90;;;;;;5098835;28;21101;-63
2023/05/09 07:49:31;;;;;;;16.90;15.10;;;19.00;99.90;;;;;;5097314;28;20482;-63
2023/05/09 07:51:58;;;;;;;17.67;15.87;;;18.80;99.90;;;;;;5087624;28;20497;-62
2023/05/09 07:54:25;;;;;;;15.03;12.80;;;19.00;99.90;;;;;;5078698;28;20979;-63
2023/05/09 07:56:52;;;;;;;15.50;13.90;;;19.00;99.90;;;;;;5077133;28;20982;-63
2023/05/09 07:59:19;;;;;;;16.57;14.40;;;19.00;99.90;;;;;;5077861;28;21014;-63
2023/05/09 08:01:46;;;;;;;16.40;14.80;;;18.90;99.90;;;;;;5077624;28;20483;-63
2023/05/09 08:04:14;;;;;;;17.07;14.77;;;18.90;99.90;;;;;;5102433;28;20572;-63
2023/05/09 08:06:41;;;;;;;18.07;16.17;;;18.80;99.90;;;;;;5092723;28;20734;-63
2023/05/09 08:09:08;;;;;;;16.57;14.87;;;18.90;99.90;;;;;;5079149;28;20487;-63
2023/05/09 08:11:35;;;;;;;20.50;17.40;;;18.90;99.90;;;;;;5074413;28;20486;-63
2023/05/09 08:14:02;;;;;;;16.30;14.13;;;18.80;99.90;;;;;;5076298;28;20487;-63
2023/05/09 08:16:28;;;;;;;18.83;16.90;;;18.90;99.90;;;;;;5081613;28;20485;-63
2023/05/09 08:18:55;;;;;;;19.47;15.73;;;18.90;99.90;;;;;;5086250;28;20488;-63
2023/05/09 08:21:24;;;;;;;17.70;15.80;;;18.90;99.90;;;;;;5078372;28;20558;-63
2023/05/09 08:23:51;;;;;;;20.20;17.40;;;19.00;99.90;;;;;;5088401;27;20499;-64
2023/05/09 08:26:18;;;;;;;17.70;15.83;;;18.90;99.90;;;;;;5102446;27;20840;-64
2023/05/09 08:28:45;;;;;;;19.33;17.13;;;19.00;99.90;;;;;;5083707;28;20486;-64
2023/05/09 08:31:12;;;;;;;20.23;17.10;;;19.10;99.90;;;;;;5083466;28;20639;-64
2023/05/09 08:33:39;;;;;;;29.17;16.27;;;19.40;99.90;;;;;;5082839;27;20508;-64
2023/05/09 08:36:06;;;;;;;19.03;16.57;;;19.50;99.90;;;;;;5098056;27;21160;-63
2023/05/09 08:38:35;;;;;;;19.23;17.03;;;19.60;99.90;;;;;;5101625;28;20474;-63
2023/05/09 08:41:02;;;;;;;19.33;17.33;;;19.60;99.90;;;;;;5080774;28;20463;-63
2023/05/09 08:43:30;;;;;;;20.73;18.53;;;19.70;99.90;;;;;;5093673;28;20488;-63
2023/05/09 08:45:59;;;;;;;22.50;18.93;;;19.70;99.90;;;;;;5091185;27;20487;-63
2023/05/09 08:48:27;;;;;;;20.73;18.53;;;20.00;99.90;;;;;;5101271;28;20472;-63
2023/05/09 08:50:55;;;;;;;20.17;18.20;;;19.90;99.90;;;;;;5083083;28;20589;-63
2023/05/09 08:53:22;;;;;;;18.80;16.90;;;20.00;99.90;;;;;;5090664;27;20483;-63
2023/05/09 08:55:51;;;;;;;18.30;16.50;;;19.90;99.90;;;;;;5081292;28;20478;-63
2023/05/09 08:58:21;;;;;;;19.30;17.47;;;20.10;99.90;;;;;;5083700;28;20498;-64
2023/05/09 09:00:50;;;;;;;20.57;18.37;;;20.20;99.90;;;;;;5081389;28;20479;-63
2023/05/09 09:03:18;;;;;;;16.70;15.20;;;20.20;99.90;;;;;;5084629;28;20473;-64
2023/05/09 09:05:47;;;;;;;18.43;16.53;;;20.20;99.90;;;;;;5086050;28;20509;-64
2023/05/09 09:08:15;;;;;;;18.10;16.20;;;20.10;99.90;;;;;;5094600;27;20484;-64
2023/05/09 09:10:45;;;;;;;19.50;17.40;;;20.10;99.90;;;;;;5098358;28;20482;-64
2023/05/09 09:13:15;;;;;;;17.60;16.00;;;20.20;99.90;;;;;;5085389;28;20477;-63
2023/05/09 09:15:44;;;;;;;17.73;16.13;;;20.50;99.90;;;;;;5083078;28;20544;-63
2023/05/09 09:18:16;;;;;;;20.10;17.80;;;20.60;99.90;;;;;;5091190;27;20493;-63
2023/05/09 09:20:47;;;;;;;17.80;16.20;;;20.60;99.90;;;;;;5086809;28;21144;-63
2023/05/09 09:23:19;;;;;;;15.40;14.00;;;20.90;99.90;;;;;;5078612;27;20485;-63
2023/05/09 09:25:46;;;;;;;18.70;14.40;;;20.90;99.90;;;;;;5098382;27;20482;-64
2023/05/09 09:28:15;;;;;;;16.23;13.97;;;21.00;99.90;;;;;;5081464;28;21273;-63
2023/05/09 09:30:46;;;;;;;15.00;13.40;;;21.10;99.80;;;;;;5069382;27;20485;-65
2023/05/09 09:33:20;;;;;;;15.03;13.53;;;21.20;99.90;;;;;;5096760;27;20488;-64
2023/05/09 09:35:48;;;;;;;11.73;10.53;;;21.40;99.90;;;;;;5095242;28;20481;-64
2023/05/09 09:38:16;;;;;;;11.47;10.37;;;21.30;99.60;;;;;;5078489;28;20482;-64
2023/05/09 09:40:53;;;;;;;9.53;8.70;;;21.10;98.90;;;;;;5087839;27;20478;-64
2023/05/09 09:43:26;;;;;;;9.80;8.90;;;21.00;99.60;;;;;;5089656;28;20481;-65
2023/05/09 09:45:54;;;;;;;8.30;7.50;;;20.90;99.60;;;;;;5087544;28;20494;-63
2023/05/09 09:48:24;;;;;;;10.17;9.00;;;20.90;99.00;;;;;;5079184;28;20474;-63
2023/05/09 09:50:51;;;;;;;8.50;7.63;;;20.70;99.90;;;;;;5076229;28;20452;-64
2023/05/09 09:53:20;;;;;;;8.33;7.63;;;20.70;98.50;;;;;;5096829;28;20440;-64
2023/05/09 09:55:50;;;;;;;8.50;7.60;;;20.80;99.90;;;;;;5082702;28;20478;-64
2023/05/09 09:58:20;;;;;;;14.73;8.60;;;20.90;99.60;;;;;;5089971;27;20481;-64
2023/05/09 10:01:05;;;;;;;8.77;7.90;;;20.90;99.90;;;;;;5098008;27;21004;-64
2023/05/09 10:03:35;;;;;;;9.07;8.17;;;21.30;99.20;;;;;;5072073;28;20474;-64
2023/05/09 10:06:02;;;;;;;10.23;8.30;;;21.50;99.60;;;;;;5078361;28;20482;-64
2023/05/09 10:08:29;;;;;;;8.83;6.37;;;21.50;99.90;;;;;;5086822;27;20543;-64
2023/05/09 10:10:57;;;;;;;7.53;6.90;;;21.20;98.70;;;;;;5083218;28;20487;-64
2023/05/09 10:13:25;;;;;;;8.73;7.83;;;21.10;98.40;;;;;;5098027;28;20473;-64
2023/05/09 10:15:56;;;;;;;7.37;6.77;;;21.10;98.90;;;;;;5094165;28;20474;-64
2023/05/09 10:18:27;;;;;;;10.03;7.23;;;21.00;98.30;;;;;;5083763;28;20460;-63
2023/05/09 10:20:54;;;;;;;9.10;6.33;;;21.00;98.70;;;;;;5091468;28;20481;-64
2023/05/09 10:23:22;;;;;;;6.47;5.97;;;21.30;99.20;;;;;;5097746;27;20876;-64
2023/05/09 10:25:54;;;;;;;6.47;4.97;;;21.40;98.80;;;;;;5090956;27;20834;-64
2023/05/09 10:28:27;;;;;;;7.97;5.60;;;21.20;98.20;;;;;;5079002;28;20477;-64
2023/05/09 10:31:01;;;;;;;6.33;5.83;;;21.30;99.70;;;;;;5081805;28;20824;-64
2023/05/09 10:33:35;;;;;;;7.80;6.80;;;21.30;98.40;;;;;;5059863;28;20470;-64
2023/05/09 10:36:04;;;;;;;7.03;6.37;;;21.10;99.60;;;;;;5089986;28;20477;-64
2023/05/09 10:38:31;;;;;;;7.63;5.40;;;21.40;99.20;;;;;;5081375;28;20479;-64
2023/05/09 10:40:59;;;;;;;5.60;5.10;;;21.60;99.10;;;;;;5089203;28;20492;-64
2023/05/09 10:43:26;;;;;;;8.40;7.60;;;21.60;97.60;;;;;;5089594;28;20486;-64
2023/05/09 10:45:54;;;;;;;5.90;5.27;;;21.50;97.60;;;;;;5081719;28;21001;-64
2023/05/09 10:48:23;;;;;;;6.47;5.97;;;21.50;98.50;;;;;;5086263;28;20735;-63
2023/05/09 10:50:51;;;;;;;6.27;5.77;;;21.40;97.90;;;;;;5085815;28;20555;-64
2023/05/09 10:53:20;;;;;;;8.23;5.73;;;21.50;97.80;;;;;;5098421;28;20518;-63
2023/05/09 10:55:52;;;;;;;6.17;5.60;;;21.70;98.50;;;;;;5097891;28;20482;-64
2023/05/09 10:58:21;;;;;;;7.23;6.53;;;21.80;97.90;;;;;;5085498;28;20811;-64
2023/05/09 11:00:49;;;;;;;5.57;5.10;;;21.90;98.10;;;;;;5082912;28;20461;-63
2023/05/09 11:03:17;;;;;;;6.20;5.70;;;22.00;96.60;;;;;;5078806;28;20473;-64
2023/05/09 11:05:47;;;;;;;6.33;5.83;;;22.00;97.20;;;;;;5065449;28;20474;-64
2023/05/09 11:08:25;;;;;;;5.27;4.77;;;21.90;96.90;;;;;;5078662;28;20542;-65
2023/05/09 11:10:53;;;;;;;5.87;5.27;;;22.20;97.80;;;;;;5063977;28;20817;-65
2023/05/09 11:13:23;;;;;;;5.70;5.20;;;22.30;97.00;;;;;;5080292;28;20472;-63
2023/05/09 11:16:10;;;;;;;6.73;5.23;;;22.10;97.00;;;;;;5095752;28;20990;-65
2023/05/09 11:18:51;;;;;;;6.30;5.70;;;21.90;98.00;;;;;;5078634;28;20509;-64
2023/05/09 11:21:20;;;;;;;6.93;6.23;;;21.70;97.00;;;;;;5086651;28;20967;-64
2023/05/09 11:23:49;;;;;;;5.90;5.40;;;21.70;98.10;;;;;;5086727;28;20444;-64
2023/05/09 11:26:17;;;;;;;9.47;5.27;;;21.90;98.10;;;;;;5087913;28;20460;-64
2023/05/09 11:28:52;;;;;;;5.50;5.00;;;22.00;97.00;;;;;;5080794;28;20537;-64
2023/05/09 11:31:19;;;;;;;5.00;4.50;;;22.00;97.90;;;;;;5071121;28;20444;-65
2023/05/09 11:33:53;;;;;;;5.37;4.90;;;22.20;97.20;;;;;;5097277;28;20710;-65
2023/05/09 11:36:28;;;;;;;8.80;5.43;;;22.20;98.10;;;;;;5089469;28;20531;-65
2023/05/09 11:39:05;;;;;;;9.23;5.70;;;22.20;97.10;;;;;;5086840;28;20557;-64
2023/05/09 11:41:38;;;;;;;5.90;5.40;;;22.40;98.20;;;;;;5073918;28;20732;-65
2023/05/09 11:44:11;;;;;;;5.33;4.97;;;22.30;97.00;;;;;;5073445;28;20548;-64
2023/05/09 11:46:38;;;;;;;5.93;5.47;;;22.40;96.90;;;;;;5078333;28;20453;-64
2023/05/09 11:49:06;;;;;;;7.00;5.60;;;22.70;97.30;;;;;;5087500;28;20452;-64
2023/05/09 11:51:37;;;;;;;6.53;5.93;;;22.80;97.00;;;;;;5088481;28;20481;-64
2023/05/09 11:54:04;;;;;;;5.90;5.30;;;22.80;96.00;;;;;;5073189;28;20828;-64
2023/05/09 11:56:31;;;;;;;7.67;6.00;;;22.80;96.90;;;;;;5069672;28;20460;-64
2023/05/09 11:58:59;;;;;;;6.00;5.47;;;22.90;97.50;;;;;;5074623;28;20482;-65
2023/05/09 12:01:26;;;;;;;5.93;5.13;;;23.00;96.70;;;;;;5069291;28;20474;-64
2023/05/09 12:03:53;;;;;;;5.63;5.00;;;23.10;97.10;;;;;;5082695;28;21387;-64
2023/05/09 12:06:20;;;;;;;5.20;4.80;;;23.20;96.10;;;;;;5088980;28;20446;-64
2023/05/09 12:08:48;;;;;;;5.07;4.67;;;23.10;97.00;;;;;;5082624;28;21632;-64
2023/05/09 12:11:15;;;;;;;6.97;4.53;;;23.10;96.30;;;;;;5086757;28;20466;-64
2023/05/09 12:13:46;;;;;;;6.93;4.77;;;23.00;96.50;;;;;;5089298;28;20478;-64
2023/05/09 12:16:13;;;;;;;4.73;4.33;;;22.80;95.80;;;;;;5086585;28;20486;-64
2023/05/09 12:18:45;;;;;;;5.40;4.90;;;22.50;97.40;;;;;;5078954;28;20489;-64
2023/05/09 12:21:12;;;;;;;5.37;4.97;;;22.30;95.50;;;;;;5097286;27;20457;-64
2023/05/09 12:23:39;;;;;;;6.50;5.20;;;22.30;96.40;;;;;;5081876;28;20485;-65
2023/05/09 12:26:08;;;;;;;5.43;4.93;;;22.30;95.60;;;;;;5096423;28;20484;-64
2023/05/09 12:28:35;;;;;;;5.00;4.70;;;22.30;96.70;;;;;;5093106;28;20732;-64
2023/05/09 12:31:02;;;;;;;5.27;4.77;;;22.30;97.50;;;;;;5094017;28;20479;-65
2023/05/09 12:33:30;;;;;;;5.90;5.30;;;22.30;97.30;;;;;;5081206;28;20982;-64
2023/05/09 12:36:05;;;;;;;10.33;5.73;;;22.40;96.20;;;;;;5067359;28;20478;-64